Time;durP1;ratioP1;P1;durP2;ratioP2;P2;SDS_P1;SDS_P2;PMS_P1;PMS_P2;Temp;Humidity;BMP_temperature;BMP_pressure;BME280_temperature;BME280_humidity;BME280_pressure;Samples;Min_cycle;Max_cycle;Signal;HPM_P1;HPM_P2
2022/09/18 00:00:58;;;;;;;6.57;1.42;;;8.80;99.90;;;;;;5087207;28;20036;-62
2022/09/18 00:03:26;;;;;;;9.30;1.50;;;8.90;99.90;;;;;;5078808;28;20134;-63
2022/09/18 00:05:51;;;;;;;9.95;1.60;;;9.00;99.90;;;;;;5080652;28;20114;-61
2022/09/18 00:08:17;;;;;;;5.80;1.10;;;8.70;99.90;;;;;;5079019;28;20044;-61
2022/09/18 00:10:45;;;;;;;8.13;1.42;;;8.80;99.90;;;;;;5085407;28;20044;-62
2022/09/18 00:13:11;;;;;;;7.57;1.60;;;8.60;99.90;;;;;;5087973;28;20040;-62
2022/09/18 00:15:37;;;;;;;6.90;1.33;;;8.80;99.90;;;;;;5087744;28;20036;-61
2022/09/18 00:18:04;;;;;;;7.93;1.45;;;8.80;99.90;;;;;;5089880;28;20446;-62
2022/09/18 00:20:32;;;;;;;6.18;1.38;;;8.70;99.90;;;;;;5087234;28;20044;-62
2022/09/18 00:22:58;;;;;;;11.52;1.65;;;8.60;99.90;;;;;;5083022;28;20521;-61
2022/09/18 00:25:24;;;;;;;9.18;1.58;;;8.90;99.90;;;;;;5088339;28;20032;-61
2022/09/18 00:27:49;;;;;;;10.52;2.03;;;8.70;99.90;;;;;;5089540;28;20050;-61
2022/09/18 00:30:16;;;;;;;8.05;1.70;;;8.60;99.90;;;;;;5084998;28;20031;-63
2022/09/18 00:32:41;;;;;;;9.57;1.70;;;8.80;99.90;;;;;;5090227;28;20502;-61
2022/09/18 00:35:07;;;;;;;11.60;1.60;;;8.60;99.90;;;;;;5081758;28;20032;-61
2022/09/18 00:37:33;;;;;;;7.88;1.38;;;8.60;99.90;;;;;;5079106;28;20403;-62
2022/09/18 00:39:58;;;;;;;11.25;1.40;;;8.60;99.90;;;;;;5087351;28;20040;-61
2022/09/18 00:42:24;;;;;;;7.28;1.45;;;8.80;99.90;;;;;;5085656;28;20040;-62
2022/09/18 00:44:50;;;;;;;6.45;1.30;;;8.90;99.90;;;;;;5083821;28;20460;-62
2022/09/18 00:47:22;;;;;;;9.50;1.75;;;8.90;99.90;;;;;;5082799;28;20028;-62
2022/09/18 00:50:01;;;;;;;14.18;2.13;;;8.70;99.90;;;;;;5082748;28;20493;-62
2022/09/18 00:52:35;;;;;;;7.95;1.65;;;9.00;99.90;;;;;;5082141;28;20035;-62
2022/09/18 00:55:08;;;;;;;10.45;1.85;;;9.00;99.90;;;;;;5085761;28;20093;-62
2022/09/18 00:57:40;;;;;;;14.20;2.03;;;8.90;99.90;;;;;;5086443;28;20036;-62
2022/09/18 01:00:16;;;;;;;9.95;1.60;;;9.10;99.90;;;;;;5086898;28;20032;-62
2022/09/18 01:02:44;;;;;;;8.43;1.30;;;9.00;99.90;;;;;;5087185;28;20048;-63
2022/09/18 01:05:12;;;;;;;11.18;1.80;;;8.80;99.90;;;;;;5086909;28;20048;-61
2022/09/18 01:08:19;;;;;;;7.65;1.58;;;8.90;99.90;;;;;;5087959;28;20509;-62
2022/09/18 01:11:24;;;;;;;8.30;1.27;;;8.90;99.90;;;;;;5089242;28;20046;-62
2022/09/18 01:14:07;;;;;;;8.60;1.23;;;8.90;99.90;;;;;;5058760;28;20499;-61
2022/09/18 01:16:48;;;;;;;8.35;1.88;;;8.50;99.90;;;;;;5074160;28;20063;-61
2022/09/18 01:19:32;;;;;;;3.38;1.25;;;8.80;99.90;;;;;;5085907;28;20471;-62
2022/09/18 01:22:29;;;;;;;11.57;2.05;;;8.70;99.90;;;;;;5081737;28;20101;-62
2022/09/18 01:25:35;;;;;;;8.25;1.60;;;9.00;99.90;;;;;;5074842;28;20045;-62
2022/09/18 01:28:20;;;;;;;11.45;1.92;;;9.10;99.90;;;;;;5068982;28;20081;-62
2022/09/18 01:30:47;;;;;;;7.55;1.40;;;9.10;99.90;;;;;;5085935;28;20048;-62
2022/09/18 01:33:46;;;;;;;10.13;1.80;;;8.90;99.90;;;;;;5082977;28;20036;-62
2022/09/18 01:36:16;;;;;;;9.13;1.17;;;8.80;99.90;;;;;;5073018;28;20528;-61
2022/09/18 01:38:50;;;;;;;7.97;1.27;;;8.80;99.90;;;;;;5083530;28;20510;-61
2022/09/18 01:41:25;;;;;;;11.13;1.55;;;8.90;99.90;;;;;;5088372;28;20344;-63
2022/09/18 01:43:59;;;;;;;9.18;1.67;;;8.90;99.90;;;;;;5077808;28;20417;-62
2022/09/18 01:46:25;;;;;;;8.45;1.60;;;8.80;99.90;;;;;;5084861;28;20043;-62
2022/09/18 01:48:58;;;;;;;14.50;2.17;;;9.00;99.90;;;;;;5084233;28;20044;-61
2022/09/18 01:51:33;;;;;;;8.55;1.63;;;8.70;99.90;;;;;;5077898;28;20054;-62
2022/09/18 01:54:06;;;;;;;13.48;1.70;;;8.90;99.90;;;;;;5087049;28;20243;-61
2022/09/18 01:56:45;;;;;;;11.65;2.05;;;9.00;99.90;;;;;;5084636;28;20047;-62
2022/09/18 01:59:17;;;;;;;11.23;1.67;;;8.70;99.90;;;;;;5087740;28;20493;-61
2022/09/18 02:01:46;;;;;;;10.10;2.00;;;8.70;99.90;;;;;;5083880;28;20044;-61
2022/09/18 02:04:18;;;;;;;9.43;1.52;;;9.00;99.90;;;;;;5081296;28;20101;-61
2022/09/18 02:07:13;;;;;;;11.43;2.00;;;8.90;99.90;;;;;;5087607;28;20044;-62
2022/09/18 02:09:40;;;;;;;10.95;1.95;;;8.80;99.90;;;;;;5082522;28;20051;-61
2022/09/18 02:12:10;;;;;;;9.07;2.10;;;8.80;99.90;;;;;;5086189;28;20032;-62
2022/09/18 02:14:46;;;;;;;10.43;1.73;;;9.10;99.90;;;;;;5082037;28;20036;-62
2022/09/18 02:17:20;;;;;;;8.70;1.50;;;9.10;99.90;;;;;;5082725;28;20433;-61
2022/09/18 02:19:56;;;;;;;11.43;1.42;;;8.90;99.90;;;;;;5086529;28;20047;-62
2022/09/18 02:22:24;;;;;;;14.70;1.67;;;8.80;99.90;;;;;;5083608;28;20044;-61
2022/09/18 02:24:53;;;;;;;16.73;2.00;;;9.00;99.90;;;;;;5081825;28;20036;-62
2022/09/18 02:27:21;;;;;;;8.77;1.60;;;8.80;99.90;;;;;;5087413;28;20055;-61
2022/09/18 02:29:48;;;;;;;6.97;1.38;;;9.00;99.90;;;;;;5083502;28;20391;-61
2022/09/18 02:32:14;;;;;;;13.05;1.58;;;8.80;99.90;;;;;;5087293;28;20115;-61
2022/09/18 02:34:39;;;;;;;12.65;1.60;;;8.90;99.90;;;;;;5084047;28;20783;-61
2022/09/18 02:37:36;;;;;;;8.77;1.30;;;8.90;99.90;;;;;;5080519;28;20085;-62
2022/09/18 02:40:16;;;;;;;15.98;1.92;;;9.00;99.90;;;;;;5058329;28;20052;-63
2022/09/18 02:43:00;;;;;;;12.40;1.95;;;8.80;99.90;;;;;;5076282;28;20047;-62
2022/09/18 02:45:36;;;;;;;10.85;1.55;;;9.10;99.90;;;;;;5077398;28;20109;-62
2022/09/18 02:48:11;;;;;;;10.13;1.15;;;9.10;99.90;;;;;;5086167;28;20135;-62
2022/09/18 02:51:03;;;;;;;10.65;1.52;;;8.80;99.90;;;;;;5082284;28;20032;-62
2022/09/18 02:53:29;;;;;;;10.45;1.58;;;8.80;99.90;;;;;;5085315;28;20032;-63
2022/09/18 02:56:27;;;;;;;8.68;1.52;;;9.10;99.90;;;;;;5087623;28;20051;-62
2022/09/18 02:58:58;;;;;;;9.18;1.33;;;9.20;99.90;;;;;;5081423;28;20054;-61
2022/09/18 03:01:26;;;;;;;10.40;1.52;;;8.90;99.90;;;;;;5090090;28;20521;-62
2022/09/18 03:03:51;;;;;;;15.95;1.80;;;9.00;99.90;;;;;;5078419;28;20063;-61
2022/09/18 03:06:17;;;;;;;9.73;1.65;;;9.00;99.90;;;;;;5086695;28;20048;-62
2022/09/18 03:08:43;;;;;;;12.80;1.38;;;9.10;99.90;;;;;;5090742;28;20564;-61
2022/09/18 03:11:08;;;;;;;6.53;1.70;;;9.00;99.90;;;;;;5092951;28;20032;-63
2022/09/18 03:13:34;;;;;;;8.55;1.60;;;9.10;99.90;;;;;;5088051;28;20190;-62
2022/09/18 03:16:00;;;;;;;10.75;1.52;;;8.90;99.90;;;;;;5087770;28;20040;-61
2022/09/18 03:18:27;;;;;;;11.68;1.63;;;9.20;99.90;;;;;;5085831;28;20036;-62
2022/09/18 03:20:52;;;;;;;10.57;2.10;;;9.00;99.90;;;;;;5076631;28;20044;-61
2022/09/18 03:23:18;;;;;;;5.35;1.45;;;9.30;99.90;;;;;;5085322;28;20106;-62
2022/09/18 03:25:44;;;;;;;9.93;1.60;;;9.10;99.90;;;;;;5089014;28;20606;-62
2022/09/18 03:28:09;;;;;;;11.68;1.60;;;9.40;99.90;;;;;;5089013;28;20048;-62
2022/09/18 03:30:35;;;;;;;11.20;1.40;;;9.30;99.90;;;;;;5086688;28;20040;-62
2022/09/18 03:33:01;;;;;;;11.45;1.90;;;9.40;99.90;;;;;;5090177;28;20032;-63
2022/09/18 03:35:26;;;;;;;9.93;1.50;;;9.50;99.90;;;;;;5089965;28;20032;-62
2022/09/18 03:37:53;;;;;;;12.25;1.80;;;9.50;99.90;;;;;;5090416;28;20036;-61
2022/09/18 03:40:19;;;;;;;6.63;1.40;;;9.30;99.90;;;;;;5087099;28;20048;-62
2022/09/18 03:42:45;;;;;;;2.78;0.80;;;9.20;99.90;;;;;;5076620;28;20446;-62
2022/09/18 03:45:11;;;;;;;7.93;1.50;;;9.40;99.90;;;;;;5085568;28;20032;-62
2022/09/18 03:47:37;;;;;;;8.75;1.40;;;9.40;99.90;;;;;;5085234;28;20023;-61
2022/09/18 03:50:05;;;;;;;7.97;1.20;;;9.40;99.90;;;;;;5088463;28;20043;-62
2022/09/18 03:52:31;;;;;;;4.60;1.50;;;9.70;99.90;;;;;;5088917;28;20038;-62
2022/09/18 03:54:57;;;;;;;10.63;1.88;;;9.40;99.90;;;;;;5088732;28;20115;-63
2022/09/18 03:57:22;;;;;;;11.45;1.65;;;9.40;99.90;;;;;;5088883;28;20028;-62
2022/09/18 03:59:48;;;;;;;6.38;1.40;;;9.60;99.90;;;;;;5083505;28;20532;-62
2022/09/18 04:02:14;;;;;;;7.85;1.25;;;9.50;99.90;;;;;;5090815;28;20529;-62
2022/09/18 04:04:39;;;;;;;13.27;1.63;;;9.50;99.90;;;;;;5081002;28;20400;-62
2022/09/18 04:07:06;;;;;;;13.98;1.75;;;9.40;99.90;;;;;;5088380;28;20039;-61
2022/09/18 04:09:32;;;;;;;7.57;1.30;;;9.30;99.90;;;;;;5089514;28;20146;-62
2022/09/18 04:11:57;;;;;;;11.93;1.52;;;9.50;99.90;;;;;;5087785;28;20032;-62
2022/09/18 04:14:23;;;;;;;6.70;1.70;;;9.50;99.90;;;;;;5085147;28;20041;-62
2022/09/18 04:16:48;;;;;;;10.85;1.73;;;9.30;99.90;;;;;;5085193;28;20028;-62
2022/09/18 04:19:14;;;;;;;8.68;1.30;;;9.30;99.90;;;;;;5088167;28;20763;-62
2022/09/18 04:21:39;;;;;;;6.75;1.20;;;9.50;99.90;;;;;;5083654;28;20057;-62
2022/09/18 04:24:05;;;;;;;8.75;1.30;;;9.30;99.90;;;;;;5083215;28;20040;-62
2022/09/18 04:26:33;;;;;;;6.07;1.30;;;9.20;99.90;;;;;;5088421;28;20472;-62
2022/09/18 04:28:59;;;;;;;8.25;1.23;;;9.20;99.90;;;;;;5086675;28;20146;-62
2022/09/18 04:31:24;;;;;;;11.52;1.30;;;9.40;99.90;;;;;;5090026;28;20507;-62
2022/09/18 04:33:50;;;;;;;10.02;1.70;;;9.30;99.90;;;;;;5081883;28;20100;-62
2022/09/18 04:36:16;;;;;;;9.00;1.27;;;9.30;99.90;;;;;;5087067;28;20028;-62
2022/09/18 04:38:41;;;;;;;10.88;1.50;;;9.50;99.90;;;;;;5082433;28;20048;-62
2022/09/18 04:41:07;;;;;;;9.13;1.73;;;9.50;99.90;;;;;;5078911;28;20471;-62
2022/09/18 04:43:32;;;;;;;5.07;0.93;;;9.40;99.90;;;;;;5082382;28;20044;-62
2022/09/18 04:45:58;;;;;;;9.32;1.50;;;9.50;99.90;;;;;;5083871;28;20042;-63
2022/09/18 04:48:24;;;;;;;6.13;1.40;;;9.30;99.90;;;;;;5087364;28;20040;-63
2022/09/18 04:50:50;;;;;;;10.27;1.52;;;9.40;99.90;;;;;;5085807;28;20039;-62
2022/09/18 04:53:15;;;;;;;9.35;1.23;;;9.50;99.90;;;;;;5087932;28;20040;-62
2022/09/18 04:55:45;;;;;;;6.75;1.25;;;9.40;99.90;;;;;;5089574;28;20554;-62
2022/09/18 04:58:12;;;;;;;7.82;1.52;;;9.60;99.90;;;;;;5087921;28;20570;-63
2022/09/18 05:00:37;;;;;;;10.93;1.52;;;9.60;99.90;;;;;;5083140;28;20097;-63
2022/09/18 05:03:04;;;;;;;8.13;1.30;;;9.40;99.90;;;;;;5088022;28;20052;-63
2022/09/18 05:05:30;;;;;;;8.75;1.23;;;9.40;99.90;;;;;;5083139;28;20138;-62
2022/09/18 05:07:59;;;;;;;10.90;1.38;;;9.40;99.90;;;;;;5087637;28;20127;-62
2022/09/18 05:10:25;;;;;;;8.32;1.33;;;9.40;99.90;;;;;;5085240;28;20696;-62
2022/09/18 05:12:51;;;;;;;6.53;1.17;;;9.50;99.90;;;;;;5089235;28;20035;-62
2022/09/18 05:15:17;;;;;;;8.88;1.33;;;9.30;99.90;;;;;;5087770;28;20463;-61
2022/09/18 05:17:43;;;;;;;6.38;1.27;;;9.40;99.90;;;;;;5087225;28;20474;-63
2022/09/18 05:20:09;;;;;;;6.00;1.23;;;9.50;99.90;;;;;;5086951;28;20032;-62
2022/09/18 05:22:35;;;;;;;6.13;1.52;;;9.40;99.90;;;;;;5075881;28;20093;-63
2022/09/18 05:25:01;;;;;;;8.15;1.25;;;9.50;99.90;;;;;;5084499;28;20119;-62
2022/09/18 05:27:27;;;;;;;6.22;1.20;;;9.50;99.90;;;;;;5089170;28;20132;-62
2022/09/18 05:29:52;;;;;;;5.50;1.17;;;9.60;99.90;;;;;;5083969;28;20047;-62
2022/09/18 05:32:19;;;;;;;10.45;1.10;;;9.40;99.90;;;;;;5083686;28;20035;-62
2022/09/18 05:34:45;;;;;;;4.22;1.60;;;9.40;99.90;;;;;;5082570;28;20093;-62
2022/09/18 05:37:12;;;;;;;10.10;1.20;;;9.50;99.90;;;;;;5075284;28;20130;-62
2022/09/18 05:39:37;;;;;;;7.82;1.38;;;9.40;99.90;;;;;;5084075;28;20044;-62
2022/09/18 05:42:03;;;;;;;6.55;1.27;;;9.60;99.90;;;;;;5086486;28;20798;-62
2022/09/18 05:44:29;;;;;;;6.20;1.25;;;9.70;99.90;;;;;;5083920;28;20044;-62
2022/09/18 05:46:55;;;;;;;5.60;0.95;;;9.70;99.90;;;;;;5086047;28;20074;-62
2022/09/18 05:49:20;;;;;;;8.43;1.70;;;9.50;99.90;;;;;;5072895;28;20039;-63
2022/09/18 05:51:46;;;;;;;13.68;1.40;;;9.60;99.90;;;;;;5083653;28;20097;-63
2022/09/18 05:54:11;;;;;;;7.35;1.08;;;9.60;99.90;;;;;;5083819;28;20036;-64
2022/09/18 05:56:37;;;;;;;7.35;1.30;;;9.90;99.90;;;;;;5076486;28;20036;-63
2022/09/18 05:59:03;;;;;;;7.68;1.23;;;9.60;99.90;;;;;;5085354;28;20036;-63
2022/09/18 06:01:29;;;;;;;6.20;1.17;;;9.60;99.90;;;;;;5084846;28;20040;-63
2022/09/18 06:03:55;;;;;;;5.38;0.80;;;9.80;99.90;;;;;;5082970;28;20067;-63
2022/09/18 06:06:21;;;;;;;5.32;1.27;;;9.90;99.90;;;;;;5082895;28;20112;-63
2022/09/18 06:08:46;;;;;;;5.20;1.05;;;9.90;99.90;;;;;;5079896;28;20047;-63
2022/09/18 06:11:12;;;;;;;5.28;1.33;;;9.90;99.90;;;;;;5075088;28;20040;-63
2022/09/18 06:13:37;;;;;;;7.40;1.17;;;9.80;99.90;;;;;;5084655;28;20041;-63
2022/09/18 06:16:03;;;;;;;3.70;0.65;;;10.00;99.90;;;;;;5084069;28;20636;-63
2022/09/18 06:18:29;;;;;;;5.93;1.35;;;9.90;99.90;;;;;;5077980;28;20044;-63
2022/09/18 06:20:56;;;;;;;6.60;1.15;;;9.90;99.90;;;;;;5078872;28;20079;-62
2022/09/18 06:23:23;;;;;;;5.10;1.02;;;9.70;99.90;;;;;;5082514;28;20150;-63
2022/09/18 06:26:03;;;;;;;5.97;1.15;;;10.10;99.90;;;;;;5082469;28;20055;-63
2022/09/18 06:28:29;;;;;;;6.40;1.05;;;9.70;99.90;;;;;;5083226;28;20040;-63
2022/09/18 06:31:00;;;;;;;5.82;0.90;;;10.00;99.90;;;;;;5073057;28;20423;-63
2022/09/18 06:33:28;;;;;;;4.43;0.85;;;9.90;99.90;;;;;;5089491;28;20042;-62
2022/09/18 06:35:53;;;;;;;5.40;1.02;;;10.00;99.90;;;;;;5084918;28;20043;-63
2022/09/18 06:38:19;;;;;;;9.88;1.38;;;10.00;99.90;;;;;;5092320;28;20039;-63
2022/09/18 06:40:52;;;;;;;9.32;1.40;;;9.90;99.90;;;;;;5079649;28;20047;-63
2022/09/18 06:43:18;;;;;;;5.18;1.10;;;10.20;99.90;;;;;;5088211;28;20040;-63
2022/09/18 06:45:49;;;;;;;6.35;1.40;;;9.90;99.90;;;;;;5093654;28;20047;-63
2022/09/18 06:48:14;;;;;;;4.03;1.00;;;10.20;99.90;;;;;;5091194;28;20080;-63
2022/09/18 06:50:40;;;;;;;6.47;1.00;;;10.00;99.90;;;;;;5090382;28;20116;-63
2022/09/18 06:53:06;;;;;;;5.85;1.45;;;10.10;99.90;;;;;;5085075;28;20101;-63
2022/09/18 06:55:31;;;;;;;9.65;1.70;;;10.10;99.90;;;;;;5089354;28;20618;-63
2022/09/18 06:57:58;;;;;;;4.57;1.20;;;10.20;99.90;;;;;;5081782;28;20040;-63
2022/09/18 07:00:25;;;;;;;5.53;1.23;;;10.20;99.90;;;;;;5087465;28;20024;-63
2022/09/18 07:03:01;;;;;;;8.23;1.92;;;10.20;99.90;;;;;;5084584;28;20070;-63
2022/09/18 07:05:29;;;;;;;3.83;1.17;;;10.20;99.90;;;;;;5082580;28;20044;-63
2022/09/18 07:07:55;;;;;;;5.72;1.40;;;10.00;99.90;;;;;;5089565;28;20048;-63
2022/09/18 07:10:21;;;;;;;9.48;1.50;;;10.00;99.90;;;;;;5094095;28;20437;-63
2022/09/18 07:12:49;;;;;;;8.45;2.45;;;10.00;99.90;;;;;;5090437;28;20028;-63
2022/09/18 07:15:16;;;;;;;7.75;2.60;;;10.10;99.90;;;;;;5081287;28;20032;-63
2022/09/18 07:17:42;;;;;;;5.22;1.70;;;10.10;99.90;;;;;;5084111;28;20044;-63
2022/09/18 07:20:09;;;;;;;7.88;1.67;;;10.30;99.90;;;;;;5087758;28;20085;-63
2022/09/18 07:22:35;;;;;;;8.90;2.15;;;10.20;99.90;;;;;;5081601;28;20073;-63
2022/09/18 07:25:01;;;;;;;10.60;2.33;;;10.40;99.90;;;;;;5086267;28;20032;-63
2022/09/18 07:27:28;;;;;;;7.20;2.10;;;10.40;99.90;;;;;;5078592;28;20106;-63
2022/09/18 07:29:53;;;;;;;10.30;1.42;;;10.40;99.90;;;;;;5074480;28;20041;-63
2022/09/18 07:32:21;;;;;;;4.03;1.15;;;10.10;99.90;;;;;;5090280;28;20507;-63
2022/09/18 07:34:47;;;;;;;9.02;1.52;;;10.40;99.90;;;;;;5083847;28;20147;-63
2022/09/18 07:37:13;;;;;;;6.57;1.20;;;10.40;99.90;;;;;;5085571;28;20119;-63
2022/09/18 07:39:38;;;;;;;6.47;1.30;;;10.30;99.90;;;;;;5080956;28;20040;-63
2022/09/18 07:42:04;;;;;;;13.38;1.70;;;10.30;99.90;;;;;;5086754;28;20532;-63
2022/09/18 07:44:33;;;;;;;7.22;2.10;;;10.20;99.90;;;;;;5088181;28;20043;-63
2022/09/18 07:46:58;;;;;;;8.25;2.53;;;10.30;99.90;;;;;;5091253;28;20040;-63
2022/09/18 07:49:24;;;;;;;11.63;3.10;;;10.40;99.90;;;;;;5086442;28;20502;-63
2022/09/18 07:51:49;;;;;;;8.73;2.13;;;10.30;99.90;;;;;;5089322;28;20044;-63
2022/09/18 07:54:15;;;;;;;4.18;1.30;;;10.20;99.90;;;;;;5083612;28;20032;-63
2022/09/18 07:56:41;;;;;;;6.88;1.30;;;10.50;99.90;;;;;;5087372;28;20036;-63
2022/09/18 07:59:06;;;;;;;5.63;1.10;;;10.40;99.90;;;;;;5089772;28;20442;-63
2022/09/18 08:01:33;;;;;;;7.22;1.40;;;10.70;99.90;;;;;;5085413;28;20056;-63
2022/09/18 08:04:00;;;;;;;6.65;1.20;;;10.60;99.90;;;;;;5088302;28;20063;-63
2022/09/18 08:06:26;;;;;;;4.35;0.95;;;10.40;99.90;;;;;;5082603;28;20047;-64
2022/09/18 08:08:51;;;;;;;6.97;1.65;;;10.40;99.90;;;;;;5078035;28;20044;-64
2022/09/18 08:11:17;;;;;;;8.15;1.23;;;10.60;99.90;;;;;;5083479;28;20547;-64
2022/09/18 08:13:42;;;;;;;9.57;1.38;;;10.40;99.90;;;;;;5088152;28;20063;-63
2022/09/18 08:16:08;;;;;;;8.93;1.40;;;10.70;99.90;;;;;;5094388;28;20093;-64
2022/09/18 08:18:37;;;;;;;6.85;1.30;;;10.50;99.90;;;;;;5080720;28;20040;-64
2022/09/18 08:21:03;;;;;;;6.97;1.40;;;10.60;99.90;;;;;;5083668;28;20040;-64
2022/09/18 08:23:28;;;;;;;7.03;1.10;;;10.40;99.90;;;;;;5087252;28;20760;-64
2022/09/18 08:25:54;;;;;;;6.22;1.75;;;10.30;99.90;;;;;;5087277;28;20089;-64
2022/09/18 08:28:19;;;;;;;12.73;1.75;;;10.60;99.90;;;;;;5087176;28;20052;-64
2022/09/18 08:30:45;;;;;;;7.05;1.55;;;10.40;99.90;;;;;;5084375;28;20060;-65
2022/09/18 08:33:11;;;;;;;7.45;1.38;;;10.50;99.90;;;;;;5089935;28;20044;-64
2022/09/18 08:35:36;;;;;;;6.40;1.40;;;10.70;99.90;;;;;;5092030;28;20378;-64
2022/09/18 08:38:02;;;;;;;7.85;1.30;;;10.60;99.90;;;;;;5087723;28;20028;-65
2022/09/18 08:40:48;;;;;;;5.85;1.35;;;10.70;99.90;;;;;;5090802;28;20459;-65
2022/09/18 08:43:52;;;;;;;5.68;1.33;;;10.60;99.90;;;;;;5089015;28;20032;-64
2022/09/18 08:46:36;;;;;;;9.73;1.88;;;10.50;99.90;;;;;;5086200;28;20047;-65
2022/09/18 08:49:13;;;;;;;8.82;1.60;;;10.60;99.90;;;;;;5091776;28;20050;-65
2022/09/18 08:52:11;;;;;;;10.02;1.60;;;10.70;99.90;;;;;;5089052;28;20123;-65
2022/09/18 08:54:44;;;;;;;5.63;1.30;;;10.80;99.90;;;;;;5083806;28;20046;-65
2022/09/18 08:57:16;;;;;;;5.40;1.33;;;10.70;99.90;;;;;;5089268;28;20044;-65
2022/09/18 09:00:12;;;;;;;7.07;1.75;;;10.50;99.90;;;;;;5089817;28;20047;-65
2022/09/18 09:02:39;;;;;;;8.63;1.45;;;10.60;99.90;;;;;;5086851;28;20048;-65
2022/09/18 09:05:31;;;;;;;11.70;1.75;;;10.70;99.90;;;;;;5087912;28;20035;-65
2022/09/18 09:08:20;;;;;;;7.30;1.20;;;10.50;99.90;;;;;;5081456;28;20075;-65
2022/09/18 09:11:01;;;;;;;7.77;1.33;;;10.60;99.90;;;;;;5088539;28;20058;-65
2022/09/18 09:13:48;;;;;;;7.10;1.20;;;10.50;99.90;;;;;;5071514;28;20048;-65
2022/09/18 09:16:33;;;;;;;5.70;1.30;;;10.40;99.90;;;;;;5071631;28;20043;-65
2022/09/18 09:19:01;;;;;;;5.63;1.20;;;10.50;99.90;;;;;;5089623;28;20048;-65
2022/09/18 09:21:51;;;;;;;6.93;1.42;;;10.60;99.90;;;;;;5087529;28;20037;-65
2022/09/18 09:24:47;;;;;;;3.45;1.48;;;10.40;99.90;;;;;;5087935;28;20043;-65
2022/09/18 09:27:36;;;;;;;10.38;1.40;;;10.50;99.90;;;;;;5089117;28;20104;-65
2022/09/18 09:30:16;;;;;;;10.93;1.55;;;10.40;99.90;;;;;;5091987;28;20040;-65
2022/09/18 09:32:48;;;;;;;3.25;1.02;;;10.40;99.90;;;;;;5088078;28;20380;-65
2022/09/18 09:35:22;;;;;;;7.93;1.30;;;10.40;99.90;;;;;;5085178;28;20040;-65
2022/09/18 09:37:50;;;;;;;4.88;1.13;;;10.50;99.90;;;;;;5091877;28;20475;-65
2022/09/18 09:40:21;;;;;;;8.98;1.10;;;10.60;99.90;;;;;;5085707;28;20504;-65
2022/09/18 09:42:54;;;;;;;10.25;1.70;;;10.70;99.90;;;;;;5083339;28;20032;-66
2022/09/18 09:45:41;;;;;;;10.93;1.45;;;10.40;99.90;;;;;;5089652;28;20051;-66
2022/09/18 09:48:33;;;;;;;8.05;1.17;;;10.40;99.90;;;;;;5086774;28;20031;-66
2022/09/18 09:51:39;;;;;;;11.52;1.40;;;10.30;99.90;;;;;;5080889;28;20265;-66
2022/09/18 09:54:09;;;;;;;5.75;1.10;;;10.40;99.90;;;;;;5077709;28;20055;-66
2022/09/18 09:56:46;;;;;;;4.35;1.17;;;10.40;99.90;;;;;;5086520;28;20482;-66
2022/09/18 09:59:25;;;;;;;13.63;1.80;;;10.50;99.90;;;;;;5083371;28;20541;-65
2022/09/18 10:02:22;;;;;;;5.65;1.08;;;10.40;99.90;;;;;;5086156;28;20547;-65
2022/09/18 10:04:56;;;;;;;3.67;1.30;;;10.40;99.90;;;;;;5081190;28;20040;-64
2022/09/18 10:07:29;;;;;;;6.95;1.20;;;10.30;99.90;;;;;;5087445;28;20036;-65
2022/09/18 10:10:20;;;;;;;4.90;1.10;;;10.50;99.90;;;;;;5090797;28;20048;-65
2022/09/18 10:12:55;;;;;;;4.95;1.00;;;10.20;99.90;;;;;;5091082;28;20093;-64
2022/09/18 10:15:22;;;;;;;5.10;1.17;;;10.40;99.90;;;;;;5092477;28;20071;-65
2022/09/18 10:17:51;;;;;;;5.00;1.27;;;10.60;99.90;;;;;;5072940;28;20037;-64
2022/09/18 10:20:22;;;;;;;7.40;1.08;;;10.50;99.90;;;;;;5084174;28;20040;-65
2022/09/18 10:22:48;;;;;;;8.50;1.63;;;10.60;99.90;;;;;;5091120;28;20051;-64
2022/09/18 10:25:27;;;;;;;5.38;1.13;;;10.80;99.90;;;;;;5086499;28;20387;-65
2022/09/18 10:27:52;;;;;;;6.28;1.20;;;10.50;99.90;;;;;;5085588;28;20044;-64
2022/09/18 10:30:18;;;;;;;9.35;1.40;;;10.50;99.90;;;;;;5084715;28;20043;-64
2022/09/18 10:32:44;;;;;;;7.97;1.55;;;10.70;99.90;;;;;;5080580;28;20040;-65
2022/09/18 10:35:27;;;;;;;8.95;1.48;;;10.60;99.90;;;;;;5084475;28;20036;-64
2022/09/18 10:37:53;;;;;;;4.28;1.30;;;10.60;99.90;;;;;;5087155;28;20044;-65
2022/09/18 10:40:38;;;;;;;5.85;1.30;;;10.80;99.90;;;;;;5070762;28;20055;-64
2022/09/18 10:43:06;;;;;;;5.80;1.10;;;10.70;99.90;;;;;;5089858;28;20040;-64
2022/09/18 10:45:40;;;;;;;7.32;1.38;;;10.70;99.90;;;;;;5089826;28;20119;-64
2022/09/18 10:48:21;;;;;;;5.85;1.42;;;10.90;99.90;;;;;;5090286;28;20040;-64
2022/09/18 10:50:56;;;;;;;6.32;1.52;;;11.00;99.90;;;;;;5083335;28;20743;-65
2022/09/18 10:53:31;;;;;;;10.27;1.60;;;10.90;99.90;;;;;;5085790;28;20067;-64
2022/09/18 10:56:16;;;;;;;5.53;1.30;;;11.00;99.90;;;;;;5088590;28;20074;-64
2022/09/18 10:58:43;;;;;;;10.05;1.70;;;11.00;99.90;;;;;;5087739;28;20468;-64
2022/09/18 11:01:10;;;;;;;8.48;2.15;;;11.10;99.90;;;;;;5090734;28;20047;-64
2022/09/18 11:03:44;;;;;;;10.05;2.35;;;11.10;99.90;;;;;;5087295;28;20052;-64
2022/09/18 11:06:25;;;;;;;5.43;2.47;;;11.30;99.90;;;;;;5089808;28;20100;-63
2022/09/18 11:08:55;;;;;;;8.05;2.40;;;11.30;99.90;;;;;;5087580;28;20044;-63
2022/09/18 11:11:30;;;;;;;9.10;2.83;;;11.40;99.90;;;;;;5084994;28;20051;-64
2022/09/18 11:13:56;;;;;;;8.98;2.10;;;11.30;99.90;;;;;;5078161;28;20290;-64
2022/09/18 11:16:28;;;;;;;14.32;3.42;;;11.50;99.90;;;;;;5088609;28;20051;-64
2022/09/18 11:19:09;;;;;;;14.93;4.22;;;11.40;99.90;;;;;;5091501;28;20105;-64
2022/09/18 11:21:45;;;;;;;10.82;3.90;;;11.50;99.90;;;;;;5090695;28;20079;-63
2022/09/18 11:24:26;;;;;;;13.57;3.72;;;11.70;99.90;;;;;;5089726;28;20909;-63
2022/09/18 11:26:57;;;;;;;12.82;4.22;;;11.50;99.90;;;;;;5092805;28;20116;-64
2022/09/18 11:29:33;;;;;;;14.05;3.63;;;11.50;99.90;;;;;;5073067;28;20047;-64
2022/09/18 11:32:10;;;;;;;11.95;3.17;;;11.70;99.90;;;;;;5089887;28;20040;-63
2022/09/18 11:34:38;;;;;;;9.02;2.40;;;11.70;99.90;;;;;;5088574;28;20081;-63
2022/09/18 11:37:13;;;;;;;11.23;2.60;;;11.60;99.90;;;;;;5090963;28;20549;-64
2022/09/18 11:39:48;;;;;;;10.80;1.83;;;11.60;99.90;;;;;;5088802;28;20123;-64
2022/09/18 11:42:16;;;;;;;7.03;2.30;;;11.60;99.90;;;;;;5088548;28;20039;-63
2022/09/18 11:44:41;;;;;;;10.77;1.73;;;11.90;99.90;;;;;;5091066;28;20605;-63
2022/09/18 11:47:07;;;;;;;4.28;1.33;;;12.00;99.90;;;;;;5089328;28;20047;-63
2022/09/18 11:49:42;;;;;;;6.90;2.05;;;11.90;99.90;;;;;;5086966;28;20040;-63
2022/09/18 11:52:14;;;;;;;5.38;1.23;;;11.90;99.90;;;;;;5085248;28;20044;-63
2022/09/18 11:54:56;;;;;;;8.38;1.58;;;11.80;99.90;;;;;;5081951;28;20416;-64
2022/09/18 11:57:31;;;;;;;11.75;2.35;;;12.00;99.90;;;;;;5090562;28;20499;-63
2022/09/18 12:00:04;;;;;;;7.40;1.98;;;12.00;99.90;;;;;;5087385;28;20043;-63
2022/09/18 12:02:56;;;;;;;7.03;1.70;;;11.90;99.90;;;;;;5085338;28;20063;-63
2022/09/18 12:05:36;;;;;;;9.32;1.50;;;12.10;99.90;;;;;;5079666;28;20036;-63
2022/09/18 12:08:12;;;;;;;;;;;12.10;99.90;;;;;;5088992;28;20084;-63
2022/09/18 12:11:12;;;;;;;6.30;2.10;;;12.20;99.90;;;;;;5090246;28;19920;-62
2022/09/18 12:13:49;;;;;;;12.18;2.50;;;12.20;99.90;;;;;;5089812;28;20080;-62
2022/09/18 12:16:19;;;;;;;6.95;1.90;;;12.20;99.90;;;;;;5089848;28;20410;-62
2022/09/18 12:19:11;;;;;;;9.53;2.40;;;12.40;99.90;;;;;;5088976;28;20040;-63
2022/09/18 12:21:50;;;;;;;6.63;2.33;;;12.10;99.90;;;;;;5089725;28;20047;-63
2022/09/18 12:24:17;;;;;;;11.73;2.30;;;12.40;99.90;;;;;;5091116;28;20046;-62
2022/09/18 12:27:03;;;;;;;10.55;2.50;;;12.30;99.90;;;;;;5093597;28;20076;-62
2022/09/18 12:29:57;;;;;;;7.45;1.77;;;12.50;99.90;;;;;;5093282;28;20076;-62
2022/09/18 12:32:28;;;;;;;8.48;2.22;;;12.50;99.90;;;;;;5091899;28;20051;-63
2022/09/18 12:35:13;;;;;;;9.30;1.95;;;12.60;99.90;;;;;;5087321;28;20036;-61
2022/09/18 12:37:49;;;;;;;14.02;2.40;;;12.70;99.90;;;;;;5087441;28;20040;-62
2022/09/18 12:40:24;;;;;;;8.00;1.88;;;12.70;99.90;;;;;;5075769;28;20407;-62
2022/09/18 12:43:25;;;;;;;9.20;2.20;;;12.60;99.90;;;;;;5087515;28;20036;-63
2022/09/18 12:46:29;;;;;;;6.18;1.60;;;12.50;99.90;;;;;;5083711;28;20124;-63
2022/09/18 12:49:22;;;;;;;7.47;1.75;;;12.40;99.90;;;;;;5077800;28;20048;-63
2022/09/18 12:52:21;;;;;;;10.05;2.10;;;12.50;99.90;;;;;;5067321;28;20036;-63
2022/09/18 12:55:09;;;;;;;9.57;2.20;;;12.50;99.90;;;;;;5075654;28;20139;-63
2022/09/18 12:57:57;;;;;;;5.53;1.60;;;12.60;99.90;;;;;;5085405;28;20032;-62
2022/09/18 13:00:23;;;;;;;4.85;1.23;;;12.90;99.90;;;;;;5091985;28;20122;-62
2022/09/18 13:03:02;;;;;;;12.25;2.22;;;12.70;99.90;;;;;;5075372;28;20124;-61
2022/09/18 13:05:36;;;;;;;8.05;1.42;;;12.60;99.90;;;;;;5071587;28;20126;-63
2022/09/18 13:08:20;;;;;;;4.88;1.42;;;12.70;99.90;;;;;;5072639;28;20044;-62
2022/09/18 13:10:48;;;;;;;7.05;1.50;;;12.70;99.90;;;;;;5084287;28;20055;-61
2022/09/18 13:13:25;;;;;;;4.80;1.45;;;12.80;99.90;;;;;;5084081;28;20071;-62
2022/09/18 13:15:53;;;;;;;5.05;1.58;;;12.90;99.90;;;;;;5076495;28;20651;-62